sensor_id;sensor_type;location;lat;lon;timestamp;P1;durP1;ratioP1;P2;durP2;ratioP2
7703;SDS011;3894;49.700;10.770;2022-09-13T00:01:12;13.65;;;7.68;;
7703;SDS011;3894;49.700;10.770;2022-09-13T00:03:37;12.18;;;7.45;;
7703;SDS011;3894;49.700;10.770;2022-09-13T00:06:07;10.27;;;6.82;;
7703;SDS011;3894;49.700;10.770;2022-09-13T00:08:37;10.50;;;7.68;;
7703;SDS011;3894;49.700;10.770;2022-09-13T00:11:03;10.05;;;6.55;;
7703;SDS011;3894;49.700;10.770;2022-09-13T00:13:28;9.93;;;6.22;;
7703;SDS011;3894;49.700;10.770;2022-09-13T00:15:54;10.82;;;6.40;;
7703;SDS011;3894;49.700;10.770;2022-09-13T00:18:20;10.45;;;7.18;;
7703;SDS011;3894;49.700;10.770;2022-09-13T00:20:45;9.57;;;6.57;;
7703;SDS011;3894;49.700;10.770;2022-09-13T00:23:11;13.32;;;7.82;;
7703;SDS011;3894;49.700;10.770;2022-09-13T00:25:37;10.40;;;6.32;;
7703;SDS011;3894;49.700;10.770;2022-09-13T00:28:03;11.73;;;7.32;;
7703;SDS011;3894;49.700;10.770;2022-09-13T00:30:29;10.52;;;7.50;;
7703;SDS011;3894;49.700;10.770;2022-09-13T00:32:55;10.98;;;7.43;;
7703;SDS011;3894;49.700;10.770;2022-09-13T00:35:21;10.27;;;6.68;;
7703;SDS011;3894;49.700;10.770;2022-09-13T00:37:47;10.68;;;6.97;;
7703;SDS011;3894;49.700;10.770;2022-09-13T00:40:13;11.10;;;7.10;;
7703;SDS011;3894;49.700;10.770;2022-09-13T00:42:39;10.65;;;7.38;;
7703;SDS011;3894;49.700;10.770;2022-09-13T00:47:40;11.80;;;8.85;;
7703;SDS011;3894;49.700;10.770;2022-09-13T00:52:40;13.05;;;8.85;;
7703;SDS011;3894;49.700;10.770;2022-09-13T00:55:14;13.57;;;9.00;;
7703;SDS011;3894;49.700;10.770;2022-09-13T00:57:46;12.40;;;7.85;;
7703;SDS011;3894;49.700;10.770;2022-09-13T01:00:16;13.18;;;8.55;;
7703;SDS011;3894;49.700;10.770;2022-09-13T01:02:46;13.80;;;8.80;;
7703;SDS011;3894;49.700;10.770;2022-09-13T01:05:18;11.73;;;7.22;;
7703;SDS011;3894;49.700;10.770;2022-09-13T01:07:46;10.05;;;6.95;;
7703;SDS011;3894;49.700;10.770;2022-09-13T01:10:12;10.00;;;6.30;;
7703;SDS011;3894;49.700;10.770;2022-09-13T01:12:40;10.77;;;6.47;;
7703;SDS011;3894;49.700;10.770;2022-09-13T01:15:08;9.70;;;5.97;;
7703;SDS011;3894;49.700;10.770;2022-09-13T01:17:34;8.43;;;5.57;;
7703;SDS011;3894;49.700;10.770;2022-09-13T01:20:03;8.43;;;5.18;;
7703;SDS011;3894;49.700;10.770;2022-09-13T01:30:30;11.98;;;7.35;;
7703;SDS011;3894;49.700;10.770;2022-09-13T01:33:14;11.60;;;6.80;;
7703;SDS011;3894;49.700;10.770;2022-09-13T01:46:47;9.23;;;5.63;;
7703;SDS011;3894;49.700;10.770;2022-09-13T01:49:45;8.10;;;5.40;;
7703;SDS011;3894;49.700;10.770;2022-09-13T01:52:39;8.45;;;5.10;;
7703;SDS011;3894;49.700;10.770;2022-09-13T01:55:08;8.63;;;5.50;;
7703;SDS011;3894;49.700;10.770;2022-09-13T01:58:06;8.30;;;5.43;;
7703;SDS011;3894;49.700;10.770;2022-09-13T02:03:22;8.48;;;5.65;;
7703;SDS011;3894;49.700;10.770;2022-09-13T02:06:10;9.40;;;5.47;;
7703;SDS011;3894;49.700;10.770;2022-09-13T02:08:51;9.93;;;5.25;;
7703;SDS011;3894;49.700;10.770;2022-09-13T02:11:20;8.32;;;5.70;;
7703;SDS011;3894;49.700;10.770;2022-09-13T02:16:30;11.95;;;6.45;;
7703;SDS011;3894;49.700;10.770;2022-09-13T02:19:05;12.23;;;7.30;;
7703;SDS011;3894;49.700;10.770;2022-09-13T02:21:35;10.50;;;7.10;;
7703;SDS011;3894;49.700;10.770;2022-09-13T02:26:31;13.95;;;9.05;;
7703;SDS011;3894;49.700;10.770;2022-09-13T02:29:01;11.77;;;8.88;;
7703;SDS011;3894;49.700;10.770;2022-09-13T02:34:21;12.15;;;8.45;;
7703;SDS011;3894;49.700;10.770;2022-09-13T02:36:57;11.80;;;8.15;;
7703;SDS011;3894;49.700;10.770;2022-09-13T02:39:25;12.98;;;8.43;;
7703;SDS011;3894;49.700;10.770;2022-09-13T02:42:05;11.63;;;7.38;;
7703;SDS011;3894;49.700;10.770;2022-09-13T02:44:37;9.88;;;6.50;;
7703;SDS011;3894;49.700;10.770;2022-09-13T02:47:15;9.90;;;6.88;;
7703;SDS011;3894;49.700;10.770;2022-09-13T02:50:15;10.93;;;7.65;;
7703;SDS011;3894;49.700;10.770;2022-09-13T02:58:24;13.20;;;8.30;;
7703;SDS011;3894;49.700;10.770;2022-09-13T03:00:59;13.20;;;7.93;;
7703;SDS011;3894;49.700;10.770;2022-09-13T03:03:25;12.73;;;8.00;;
7703;SDS011;3894;49.700;10.770;2022-09-13T03:05:51;12.07;;;8.25;;
7703;SDS011;3894;49.700;10.770;2022-09-13T03:08:17;12.18;;;8.63;;
7703;SDS011;3894;49.700;10.770;2022-09-13T03:13:31;11.73;;;8.60;;
7703;SDS011;3894;49.700;10.770;2022-09-13T03:16:09;14.15;;;8.55;;
7703;SDS011;3894;49.700;10.770;2022-09-13T03:18:54;12.60;;;8.13;;
7703;SDS011;3894;49.700;10.770;2022-09-13T03:25:11;12.38;;;7.75;;
7703;SDS011;3894;49.700;10.770;2022-09-13T03:27:51;12.50;;;7.57;;
7703;SDS011;3894;49.700;10.770;2022-09-13T03:30:28;12.38;;;8.25;;
7703;SDS011;3894;49.700;10.770;2022-09-13T03:33:07;11.48;;;7.07;;
7703;SDS011;3894;49.700;10.770;2022-09-13T03:35:43;13.52;;;8.48;;
7703;SDS011;3894;49.700;10.770;2022-09-13T03:38:30;14.30;;;8.88;;
7703;SDS011;3894;49.700;10.770;2022-09-13T03:41:08;13.70;;;8.98;;
7703;SDS011;3894;49.700;10.770;2022-09-13T03:43:54;12.85;;;8.88;;
7703;SDS011;3894;49.700;10.770;2022-09-13T03:46:25;13.70;;;9.20;;
7703;SDS011;3894;49.700;10.770;2022-09-13T03:49:02;13.77;;;8.98;;
7703;SDS011;3894;49.700;10.770;2022-09-13T03:51:30;13.82;;;8.73;;
7703;SDS011;3894;49.700;10.770;2022-09-13T03:53:58;13.48;;;8.75;;
7703;SDS011;3894;49.700;10.770;2022-09-13T03:56:26;13.73;;;9.02;;
7703;SDS011;3894;49.700;10.770;2022-09-13T03:58:52;14.20;;;8.55;;
7703;SDS011;3894;49.700;10.770;2022-09-13T04:01:19;13.27;;;8.75;;
7703;SDS011;3894;49.700;10.770;2022-09-13T04:03:46;14.07;;;8.75;;
7703;SDS011;3894;49.700;10.770;2022-09-13T04:06:12;12.90;;;8.60;;
7703;SDS011;3894;49.700;10.770;2022-09-13T04:08:38;12.65;;;8.13;;
7703;SDS011;3894;49.700;10.770;2022-09-13T04:11:03;13.55;;;9.27;;
7703;SDS011;3894;49.700;10.770;2022-09-13T04:13:29;13.98;;;8.30;;
7703;SDS011;3894;49.700;10.770;2022-09-13T04:15:59;15.18;;;9.65;;
7703;SDS011;3894;49.700;10.770;2022-09-13T04:18:26;14.13;;;9.07;;
7703;SDS011;3894;49.700;10.770;2022-09-13T04:20:58;13.40;;;9.00;;
7703;SDS011;3894;49.700;10.770;2022-09-13T04:23:25;15.63;;;9.82;;
7703;SDS011;3894;49.700;10.770;2022-09-13T04:25:52;16.67;;;9.38;;
7703;SDS011;3894;49.700;10.770;2022-09-13T04:28:18;15.30;;;9.82;;
7703;SDS011;3894;49.700;10.770;2022-09-13T04:30:46;11.88;;;8.35;;
7703;SDS011;3894;49.700;10.770;2022-09-13T04:33:12;16.20;;;10.23;;
7703;SDS011;3894;49.700;10.770;2022-09-13T04:35:39;14.13;;;10.27;;
7703;SDS011;3894;49.700;10.770;2022-09-13T04:38:05;16.90;;;9.68;;
7703;SDS011;3894;49.700;10.770;2022-09-13T04:40:31;14.57;;;9.30;;
7703;SDS011;3894;49.700;10.770;2022-09-13T04:42:56;13.73;;;8.95;;
7703;SDS011;3894;49.700;10.770;2022-09-13T04:45:22;12.15;;;7.78;;
7703;SDS011;3894;49.700;10.770;2022-09-13T04:47:51;10.15;;;6.88;;
7703;SDS011;3894;49.700;10.770;2022-09-13T04:50:18;9.35;;;5.68;;
7703;SDS011;3894;49.700;10.770;2022-09-13T04:52:44;8.45;;;5.53;;
7703;SDS011;3894;49.700;10.770;2022-09-13T04:55:10;10.27;;;5.70;;
7703;SDS011;3894;49.700;10.770;2022-09-13T04:57:36;10.10;;;5.68;;
7703;SDS011;3894;49.700;10.770;2022-09-13T05:00:02;8.55;;;5.72;;
7703;SDS011;3894;49.700;10.770;2022-09-13T05:02:28;10.00;;;5.97;;
7703;SDS011;3894;49.700;10.770;2022-09-13T05:04:54;9.90;;;5.97;;
7703;SDS011;3894;49.700;10.770;2022-09-13T05:07:20;8.93;;;6.15;;
7703;SDS011;3894;49.700;10.770;2022-09-13T05:09:45;9.85;;;5.80;;
7703;SDS011;3894;49.700;10.770;2022-09-13T05:12:11;9.88;;;6.97;;
7703;SDS011;3894;49.700;10.770;2022-09-13T05:14:37;11.23;;;7.35;;
7703;SDS011;3894;49.700;10.770;2022-09-13T05:17:02;11.15;;;7.40;;
7703;SDS011;3894;49.700;10.770;2022-09-13T05:19:28;11.77;;;7.72;;
7703;SDS011;3894;49.700;10.770;2022-09-13T05:21:53;15.05;;;8.00;;
7703;SDS011;3894;49.700;10.770;2022-09-13T05:24:19;13.90;;;8.35;;
7703;SDS011;3894;49.700;10.770;2022-09-13T05:26:44;12.98;;;8.00;;
7703;SDS011;3894;49.700;10.770;2022-09-13T05:29:10;14.15;;;8.38;;
7703;SDS011;3894;49.700;10.770;2022-09-13T05:31:37;10.93;;;7.13;;
7703;SDS011;3894;49.700;10.770;2022-09-13T05:34:05;16.45;;;9.00;;
7703;SDS011;3894;49.700;10.770;2022-09-13T05:36:36;22.33;;;11.07;;
7703;SDS011;3894;49.700;10.770;2022-09-13T05:39:02;17.58;;;9.07;;
7703;SDS011;3894;49.700;10.770;2022-09-13T05:41:29;14.85;;;8.65;;
7703;SDS011;3894;49.700;10.770;2022-09-13T05:43:55;16.38;;;8.60;;
7703;SDS011;3894;49.700;10.770;2022-09-13T05:46:21;16.27;;;8.57;;
7703;SDS011;3894;49.700;10.770;2022-09-13T05:48:47;11.88;;;8.10;;
7703;SDS011;3894;49.700;10.770;2022-09-13T05:51:14;13.00;;;7.68;;
7703;SDS011;3894;49.700;10.770;2022-09-13T05:53:45;12.85;;;7.68;;
7703;SDS011;3894;49.700;10.770;2022-09-13T05:56:13;14.18;;;8.50;;
7703;SDS011;3894;49.700;10.770;2022-09-13T05:58:41;15.30;;;8.30;;
7703;SDS011;3894;49.700;10.770;2022-09-13T06:01:09;27.23;;;18.02;;
7703;SDS011;3894;49.700;10.770;2022-09-13T06:03:35;28.98;;;18.23;;
7703;SDS011;3894;49.700;10.770;2022-09-13T06:06:01;23.63;;;16.70;;
7703;SDS011;3894;49.700;10.770;2022-09-13T06:08:28;24.67;;;16.10;;
7703;SDS011;3894;49.700;10.770;2022-09-13T06:11:02;23.17;;;14.77;;
7703;SDS011;3894;49.700;10.770;2022-09-13T06:13:29;18.08;;;12.15;;
7703;SDS011;3894;49.700;10.770;2022-09-13T06:15:56;16.40;;;10.57;;
7703;SDS011;3894;49.700;10.770;2022-09-13T06:18:23;16.52;;;10.52;;
7703;SDS011;3894;49.700;10.770;2022-09-13T06:20:50;13.85;;;9.90;;
7703;SDS011;3894;49.700;10.770;2022-09-13T06:23:21;15.02;;;10.27;;
7703;SDS011;3894;49.700;10.770;2022-09-13T06:25:46;14.55;;;10.48;;
7703;SDS011;3894;49.700;10.770;2022-09-13T06:28:12;13.00;;;8.68;;
7703;SDS011;3894;49.700;10.770;2022-09-13T06:30:37;14.00;;;8.90;;
7703;SDS011;3894;49.700;10.770;2022-09-13T06:33:03;11.98;;;8.20;;
7703;SDS011;3894;49.700;10.770;2022-09-13T06:35:28;14.90;;;9.07;;
7703;SDS011;3894;49.700;10.770;2022-09-13T06:37:54;13.68;;;8.30;;
7703;SDS011;3894;49.700;10.770;2022-09-13T06:40:21;13.00;;;8.48;;
7703;SDS011;3894;49.700;10.770;2022-09-13T06:42:47;12.88;;;8.68;;
7703;SDS011;3894;49.700;10.770;2022-09-13T06:45:13;12.10;;;8.15;;
7703;SDS011;3894;49.700;10.770;2022-09-13T06:47:38;12.88;;;9.15;;
7703;SDS011;3894;49.700;10.770;2022-09-13T06:50:04;12.88;;;8.88;;
7703;SDS011;3894;49.700;10.770;2022-09-13T06:52:31;12.80;;;8.48;;
7703;SDS011;3894;49.700;10.770;2022-09-13T06:54:56;15.40;;;8.93;;
7703;SDS011;3894;49.700;10.770;2022-09-13T06:57:22;13.15;;;8.70;;
7703;SDS011;3894;49.700;10.770;2022-09-13T06:59:47;12.60;;;9.27;;
7703;SDS011;3894;49.700;10.770;2022-09-13T07:02:13;12.75;;;9.05;;
7703;SDS011;3894;49.700;10.770;2022-09-13T07:04:39;11.65;;;8.23;;
7703;SDS011;3894;49.700;10.770;2022-09-13T07:07:04;13.50;;;9.25;;
7703;SDS011;3894;49.700;10.770;2022-09-13T07:09:30;11.85;;;8.55;;
7703;SDS011;3894;49.700;10.770;2022-09-13T07:11:56;14.98;;;9.38;;
7703;SDS011;3894;49.700;10.770;2022-09-13T07:14:23;12.80;;;8.85;;
7703;SDS011;3894;49.700;10.770;2022-09-13T07:16:50;14.90;;;9.00;;
7703;SDS011;3894;49.700;10.770;2022-09-13T07:19:17;10.90;;;7.90;;
7703;SDS011;3894;49.700;10.770;2022-09-13T07:21:44;12.75;;;9.02;;
7703;SDS011;3894;49.700;10.770;2022-09-13T07:24:11;13.30;;;8.43;;
7703;SDS011;3894;49.700;10.770;2022-09-13T07:26:36;13.50;;;9.00;;
7703;SDS011;3894;49.700;10.770;2022-09-13T07:29:06;13.50;;;8.52;;
7703;SDS011;3894;49.700;10.770;2022-09-13T07:31:34;11.98;;;8.88;;
7703;SDS011;3894;49.700;10.770;2022-09-13T07:34:03;12.73;;;8.93;;
7703;SDS011;3894;49.700;10.770;2022-09-13T07:36:31;11.52;;;8.32;;
7703;SDS011;3894;49.700;10.770;2022-09-13T07:38:59;13.05;;;8.68;;
7703;SDS011;3894;49.700;10.770;2022-09-13T07:41:26;12.40;;;8.70;;
7703;SDS011;3894;49.700;10.770;2022-09-13T07:43:53;11.02;;;8.23;;
7703;SDS011;3894;49.700;10.770;2022-09-13T07:46:20;12.05;;;8.60;;
7703;SDS011;3894;49.700;10.770;2022-09-13T07:48:48;13.45;;;9.27;;
7703;SDS011;3894;49.700;10.770;2022-09-13T07:51:18;12.75;;;8.82;;
7703;SDS011;3894;49.700;10.770;2022-09-13T07:53:45;13.55;;;9.10;;
7703;SDS011;3894;49.700;10.770;2022-09-13T07:56:13;12.90;;;8.60;;
7703;SDS011;3894;49.700;10.770;2022-09-13T07:58:41;12.15;;;8.45;;
7703;SDS011;3894;49.700;10.770;2022-09-13T08:01:08;14.52;;;9.52;;
7703;SDS011;3894;49.700;10.770;2022-09-13T08:03:38;12.75;;;8.52;;
7703;SDS011;3894;49.700;10.770;2022-09-13T08:06:05;13.30;;;9.32;;
7703;SDS011;3894;49.700;10.770;2022-09-13T08:08:31;13.20;;;8.63;;
7703;SDS011;3894;49.700;10.770;2022-09-13T08:10:58;11.55;;;8.43;;
7703;SDS011;3894;49.700;10.770;2022-09-13T08:13:25;14.43;;;8.95;;
7703;SDS011;3894;49.700;10.770;2022-09-13T08:15:51;11.60;;;8.30;;
7703;SDS011;3894;49.700;10.770;2022-09-13T08:18:17;13.18;;;8.52;;
7703;SDS011;3894;49.700;10.770;2022-09-13T08:20:43;13.75;;;8.75;;
7703;SDS011;3894;49.700;10.770;2022-09-13T08:23:09;10.02;;;7.53;;
7703;SDS011;3894;49.700;10.770;2022-09-13T08:25:36;10.63;;;7.53;;
7703;SDS011;3894;49.700;10.770;2022-09-13T08:28:08;11.38;;;7.60;;
7703;SDS011;3894;49.700;10.770;2022-09-13T08:30:38;11.63;;;7.95;;
7703;SDS011;3894;49.700;10.770;2022-09-13T08:33:05;11.48;;;8.00;;
7703;SDS011;3894;49.700;10.770;2022-09-13T08:35:31;11.13;;;8.07;;
7703;SDS011;3894;49.700;10.770;2022-09-13T08:37:57;10.68;;;7.57;;
7703;SDS011;3894;49.700;10.770;2022-09-13T08:40:24;11.77;;;7.70;;
7703;SDS011;3894;49.700;10.770;2022-09-13T08:43:04;10.02;;;7.43;;
7703;SDS011;3894;49.700;10.770;2022-09-13T08:45:30;11.13;;;8.30;;
7703;SDS011;3894;49.700;10.770;2022-09-13T08:48:13;10.85;;;8.20;;
7703;SDS011;3894;49.700;10.770;2022-09-13T08:50:42;10.60;;;7.72;;
7703;SDS011;3894;49.700;10.770;2022-09-13T08:53:19;10.07;;;7.18;;
7703;SDS011;3894;49.700;10.770;2022-09-13T08:55:53;10.38;;;7.80;;
7703;SDS011;3894;49.700;10.770;2022-09-13T08:58:36;9.93;;;7.13;;
7703;SDS011;3894;49.700;10.770;2022-09-13T09:01:32;13.13;;;8.30;;
7703;SDS011;3894;49.700;10.770;2022-09-13T09:06:52;10.15;;;7.40;;
7703;SDS011;3894;49.700;10.770;2022-09-13T09:09:26;9.25;;;6.88;;
7703;SDS011;3894;49.700;10.770;2022-09-13T09:12:23;11.20;;;6.95;;
7703;SDS011;3894;49.700;10.770;2022-09-13T09:15:12;9.48;;;6.63;;
7703;SDS011;3894;49.700;10.770;2022-09-13T09:20:48;9.65;;;6.50;;
7703;SDS011;3894;49.700;10.770;2022-09-13T09:23:21;10.38;;;6.20;;
7703;SDS011;3894;49.700;10.770;2022-09-13T09:25:56;8.52;;;6.13;;
7703;SDS011;3894;49.700;10.770;2022-09-13T09:28:35;9.32;;;6.10;;
7703;SDS011;3894;49.700;10.770;2022-09-13T09:31:08;9.45;;;6.40;;
7703;SDS011;3894;49.700;10.770;2022-09-13T09:38:52;8.88;;;6.70;;
7703;SDS011;3894;49.700;10.770;2022-09-13T09:41:24;8.50;;;6.03;;
7703;SDS011;3894;49.700;10.770;2022-09-13T09:46:42;9.52;;;6.53;;
7703;SDS011;3894;49.700;10.770;2022-09-13T09:49:20;7.68;;;5.60;;
7703;SDS011;3894;49.700;10.770;2022-09-13T09:52:11;9.02;;;5.95;;
7703;SDS011;3894;49.700;10.770;2022-09-13T09:54:41;9.90;;;5.50;;
7703;SDS011;3894;49.700;10.770;2022-09-13T09:57:07;9.00;;;5.88;;
7703;SDS011;3894;49.700;10.770;2022-09-13T09:59:33;9.23;;;5.38;;
7703;SDS011;3894;49.700;10.770;2022-09-13T10:02:00;8.65;;;5.43;;
7703;SDS011;3894;49.700;10.770;2022-09-13T10:04:35;9.15;;;5.80;;
7703;SDS011;3894;49.700;10.770;2022-09-13T10:07:34;9.13;;;5.70;;
7703;SDS011;3894;49.700;10.770;2022-09-13T10:09:57;9.63;;;5.40;;
7703;SDS011;3894;49.700;10.770;2022-09-13T10:12:27;8.70;;;5.80;;
7703;SDS011;3894;49.700;10.770;2022-09-13T10:17:28;9.35;;;5.57;;
7703;SDS011;3894;49.700;10.770;2022-09-13T10:19:55;7.85;;;5.57;;
7703;SDS011;3894;49.700;10.770;2022-09-13T10:22:25;9.57;;;6.10;;
7703;SDS011;3894;49.700;10.770;2022-09-13T10:27:50;8.90;;;5.82;;
7703;SDS011;3894;49.700;10.770;2022-09-13T10:33:09;7.97;;;5.63;;
7703;SDS011;3894;49.700;10.770;2022-09-13T10:35:46;10.30;;;6.32;;
7703;SDS011;3894;49.700;10.770;2022-09-13T10:38:19;8.75;;;6.47;;
7703;SDS011;3894;49.700;10.770;2022-09-13T10:40:52;8.68;;;6.03;;
7703;SDS011;3894;49.700;10.770;2022-09-13T10:43:19;9.85;;;6.05;;
7703;SDS011;3894;49.700;10.770;2022-09-13T10:45:47;9.75;;;6.70;;
7703;SDS011;3894;49.700;10.770;2022-09-13T10:48:15;8.93;;;6.40;;
7703;SDS011;3894;49.700;10.770;2022-09-13T10:50:59;9.55;;;6.28;;
7703;SDS011;3894;49.700;10.770;2022-09-13T10:53:33;9.13;;;5.78;;
7703;SDS011;3894;49.700;10.770;2022-09-13T10:56:02;8.10;;;5.53;;
7703;SDS011;3894;49.700;10.770;2022-09-13T10:58:28;7.43;;;5.45;;
7703;SDS011;3894;49.700;10.770;2022-09-13T11:01:06;7.97;;;4.95;;
7703;SDS011;3894;49.700;10.770;2022-09-13T11:09:40;7.50;;;4.45;;
7703;SDS011;3894;49.700;10.770;2022-09-13T11:12:20;8.05;;;4.78;;
7703;SDS011;3894;49.700;10.770;2022-09-13T11:15:35;7.72;;;4.60;;
7703;SDS011;3894;49.700;10.770;2022-09-13T11:23:28;6.65;;;4.38;;
7703;SDS011;3894;49.700;10.770;2022-09-13T11:41:20;6.60;;;3.40;;
7703;SDS011;3894;49.700;10.770;2022-09-13T11:46:26;5.85;;;4.28;;
7703;SDS011;3894;49.700;10.770;2022-09-13T11:49:19;8.10;;;4.88;;
7703;SDS011;3894;49.700;10.770;2022-09-13T11:51:57;6.13;;;4.63;;
7703;SDS011;3894;49.700;10.770;2022-09-13T11:57:28;6.43;;;4.90;;
7703;SDS011;3894;49.700;10.770;2022-09-13T12:00:03;7.18;;;5.30;;
7703;SDS011;3894;49.700;10.770;2022-09-13T12:02:39;6.28;;;4.55;;
7703;SDS011;3894;49.700;10.770;2022-09-13T12:05:19;6.80;;;5.25;;
7703;SDS011;3894;49.700;10.770;2022-09-13T12:13:11;7.82;;;5.18;;
7703;SDS011;3894;49.700;10.770;2022-09-13T12:16:01;8.90;;;5.28;;
7703;SDS011;3894;49.700;10.770;2022-09-13T12:18:33;7.03;;;5.00;;
7703;SDS011;3894;49.700;10.770;2022-09-13T12:21:11;8.55;;;5.80;;
7703;SDS011;3894;49.700;10.770;2022-09-13T12:26:25;9.63;;;5.45;;
7703;SDS011;3894;49.700;10.770;2022-09-13T12:32:02;7.65;;;5.55;;
7703;SDS011;3894;49.700;10.770;2022-09-13T12:45:42;7.85;;;5.38;;
7703;SDS011;3894;49.700;10.770;2022-09-13T13:02:33;7.28;;;4.60;;
7703;SDS011;3894;49.700;10.770;2022-09-13T13:05:25;7.88;;;4.38;;
7703;SDS011;3894;49.700;10.770;2022-09-13T13:07:56;8.90;;;4.05;;
7703;SDS011;3894;49.700;10.770;2022-09-13T13:10:28;5.70;;;3.60;;
7703;SDS011;3894;49.700;10.770;2022-09-13T13:13:07;6.10;;;3.83;;
7703;SDS011;3894;49.700;10.770;2022-09-13T13:18:19;6.43;;;3.97;;
7703;SDS011;3894;49.700;10.770;2022-09-13T13:23:23;7.22;;;3.90;;
7703;SDS011;3894;49.700;10.770;2022-09-13T13:36:22;9.63;;;4.28;;
7703;SDS011;3894;49.700;10.770;2022-09-13T13:39:12;6.03;;;4.40;;
7703;SDS011;3894;49.700;10.770;2022-09-13T13:42:23;7.38;;;4.15;;
7703;SDS011;3894;49.700;10.770;2022-09-13T13:49:42;6.50;;;3.45;;
7703;SDS011;3894;49.700;10.770;2022-09-13T14:02:40;6.32;;;3.95;;
7703;SDS011;3894;49.700;10.770;2022-09-13T14:08:28;7.82;;;4.07;;
7703;SDS011;3894;49.700;10.770;2022-09-13T14:19:19;6.60;;;4.00;;
7703;SDS011;3894;49.700;10.770;2022-09-13T14:27:21;7.90;;;4.22;;
7703;SDS011;3894;49.700;10.770;2022-09-13T14:29:54;8.02;;;4.00;;
7703;SDS011;3894;49.700;10.770;2022-09-13T14:32:25;8.43;;;4.20;;
7703;SDS011;3894;49.700;10.770;2022-09-13T14:37:25;5.57;;;3.70;;
7703;SDS011;3894;49.700;10.770;2022-09-13T14:40:00;7.65;;;4.13;;
7703;SDS011;3894;49.700;10.770;2022-09-13T14:42:39;6.40;;;3.92;;
7703;SDS011;3894;49.700;10.770;2022-09-13T14:45:11;6.82;;;3.90;;
7703;SDS011;3894;49.700;10.770;2022-09-13T14:50:38;7.15;;;4.03;;
7703;SDS011;3894;49.700;10.770;2022-09-13T14:53:15;7.47;;;4.05;;
7703;SDS011;3894;49.700;10.770;2022-09-13T14:55:48;5.97;;;4.05;;
7703;SDS011;3894;49.700;10.770;2022-09-13T14:58:38;8.00;;;4.20;;
7703;SDS011;3894;49.700;10.770;2022-09-13T15:01:15;8.48;;;3.80;;
7703;SDS011;3894;49.700;10.770;2022-09-13T15:03:47;7.95;;;4.18;;
7703;SDS011;3894;49.700;10.770;2022-09-13T15:06:21;7.53;;;4.13;;
7703;SDS011;3894;49.700;10.770;2022-09-13T15:08:56;7.68;;;4.50;;
7703;SDS011;3894;49.700;10.770;2022-09-13T15:11:36;7.68;;;4.03;;
7703;SDS011;3894;49.700;10.770;2022-09-13T15:25:24;7.38;;;4.28;;
7703;SDS011;3894;49.700;10.770;2022-09-13T15:27:52;6.47;;;3.90;;
7703;SDS011;3894;49.700;10.770;2022-09-13T15:30:21;8.73;;;4.20;;
7703;SDS011;3894;49.700;10.770;2022-09-13T15:35:36;5.55;;;4.07;;
7703;SDS011;3894;49.700;10.770;2022-09-13T15:38:16;6.47;;;4.38;;
7703;SDS011;3894;49.700;10.770;2022-09-13T15:40:52;5.95;;;3.85;;
7703;SDS011;3894;49.700;10.770;2022-09-13T15:43:41;7.82;;;4.13;;
7703;SDS011;3894;49.700;10.770;2022-09-13T15:46:08;9.05;;;4.22;;
7703;SDS011;3894;49.700;10.770;2022-09-13T15:48:39;6.18;;;4.20;;
7703;SDS011;3894;49.700;10.770;2022-09-13T15:51:11;8.38;;;4.55;;
7703;SDS011;3894;49.700;10.770;2022-09-13T15:53:38;6.93;;;4.40;;
7703;SDS011;3894;49.700;10.770;2022-09-13T15:56:06;5.72;;;3.72;;
7703;SDS011;3894;49.700;10.770;2022-09-13T15:58:33;9.27;;;4.70;;
7703;SDS011;3894;49.700;10.770;2022-09-13T16:01:00;8.55;;;4.80;;
7703;SDS011;3894;49.700;10.770;2022-09-13T16:03:26;8.65;;;4.07;;
7703;SDS011;3894;49.700;10.770;2022-09-13T16:05:52;6.60;;;3.80;;
7703;SDS011;3894;49.700;10.770;2022-09-13T16:08:18;5.53;;;4.30;;
7703;SDS011;3894;49.700;10.770;2022-09-13T16:10:43;6.03;;;4.18;;
7703;SDS011;3894;49.700;10.770;2022-09-13T16:13:09;7.70;;;4.13;;
7703;SDS011;3894;49.700;10.770;2022-09-13T16:15:34;6.68;;;4.05;;
7703;SDS011;3894;49.700;10.770;2022-09-13T16:18:00;5.18;;;3.72;;
7703;SDS011;3894;49.700;10.770;2022-09-13T16:20:26;5.65;;;4.10;;
7703;SDS011;3894;49.700;10.770;2022-09-13T16:22:51;7.93;;;4.10;;
7703;SDS011;3894;49.700;10.770;2022-09-13T16:25:17;6.30;;;3.80;;
7703;SDS011;3894;49.700;10.770;2022-09-13T16:27:43;6.30;;;4.32;;
7703;SDS011;3894;49.700;10.770;2022-09-13T16:30:13;7.07;;;4.55;;
7703;SDS011;3894;49.700;10.770;2022-09-13T16:32:41;6.03;;;4.20;;
7703;SDS011;3894;49.700;10.770;2022-09-13T16:35:07;7.55;;;3.80;;
7703;SDS011;3894;49.700;10.770;2022-09-13T16:37:34;8.52;;;4.43;;
7703;SDS011;3894;49.700;10.770;2022-09-13T16:39:59;6.97;;;4.18;;
7703;SDS011;3894;49.700;10.770;2022-09-13T16:42:25;8.32;;;4.38;;
7703;SDS011;3894;49.700;10.770;2022-09-13T16:44:51;8.05;;;4.90;;
7703;SDS011;3894;49.700;10.770;2022-09-13T16:47:17;7.30;;;4.45;;
7703;SDS011;3894;49.700;10.770;2022-09-13T16:49:42;9.27;;;4.88;;
7703;SDS011;3894;49.700;10.770;2022-09-13T16:52:08;7.22;;;4.70;;
7703;SDS011;3894;49.700;10.770;2022-09-13T16:54:34;8.40;;;4.70;;
7703;SDS011;3894;49.700;10.770;2022-09-13T16:57:01;7.43;;;4.78;;
7703;SDS011;3894;49.700;10.770;2022-09-13T16:59:29;7.57;;;4.50;;
7703;SDS011;3894;49.700;10.770;2022-09-13T17:01:55;8.75;;;4.60;;
7703;SDS011;3894;49.700;10.770;2022-09-13T17:04:21;8.48;;;4.57;;
7703;SDS011;3894;49.700;10.770;2022-09-13T17:06:47;6.55;;;4.78;;
7703;SDS011;3894;49.700;10.770;2022-09-13T17:09:13;8.38;;;4.88;;
7703;SDS011;3894;49.700;10.770;2022-09-13T17:11:40;8.30;;;5.30;;
7703;SDS011;3894;49.700;10.770;2022-09-13T17:14:08;9.65;;;5.38;;
7703;SDS011;3894;49.700;10.770;2022-09-13T17:16:37;8.65;;;5.18;;
7703;SDS011;3894;49.700;10.770;2022-09-13T17:19:11;8.10;;;5.53;;
7703;SDS011;3894;49.700;10.770;2022-09-13T17:21:39;7.82;;;6.07;;
7703;SDS011;3894;49.700;10.770;2022-09-13T17:24:10;8.05;;;5.65;;
7703;SDS011;3894;49.700;10.770;2022-09-13T17:26:36;8.73;;;6.43;;
7703;SDS011;3894;49.700;10.770;2022-09-13T17:29:02;9.82;;;6.63;;
7703;SDS011;3894;49.700;10.770;2022-09-13T17:31:29;11.02;;;6.28;;
7703;SDS011;3894;49.700;10.770;2022-09-13T17:33:55;11.13;;;7.28;;
7703;SDS011;3894;49.700;10.770;2022-09-13T17:36:20;11.05;;;7.05;;
7703;SDS011;3894;49.700;10.770;2022-09-13T17:38:53;12.77;;;7.70;;
7703;SDS011;3894;49.700;10.770;2022-09-13T17:41:20;11.67;;;6.17;;
7703;SDS011;3894;49.700;10.770;2022-09-13T17:43:46;13.35;;;7.63;;
7703;SDS011;3894;49.700;10.770;2022-09-13T17:46:13;8.57;;;5.85;;
7703;SDS011;3894;49.700;10.770;2022-09-13T17:48:40;8.98;;;5.13;;
7703;SDS011;3894;49.700;10.770;2022-09-13T17:51:09;7.80;;;4.95;;
7703;SDS011;3894;49.700;10.770;2022-09-13T17:53:37;12.82;;;6.13;;
7703;SDS011;3894;49.700;10.770;2022-09-13T17:56:09;9.48;;;4.55;;
7703;SDS011;3894;49.700;10.770;2022-09-13T17:58:35;6.22;;;4.75;;
7703;SDS011;3894;49.700;10.770;2022-09-13T18:01:02;9.32;;;5.53;;
7703;SDS011;3894;49.700;10.770;2022-09-13T18:03:29;7.60;;;4.68;;
7703;SDS011;3894;49.700;10.770;2022-09-13T18:05:56;10.48;;;4.97;;
7703;SDS011;3894;49.700;10.770;2022-09-13T18:08:23;6.85;;;4.75;;
7703;SDS011;3894;49.700;10.770;2022-09-13T18:10:50;8.30;;;5.10;;
7703;SDS011;3894;49.700;10.770;2022-09-13T18:13:19;7.57;;;4.95;;
7703;SDS011;3894;49.700;10.770;2022-09-13T18:15:56;7.68;;;4.60;;
7703;SDS011;3894;49.700;10.770;2022-09-13T18:18:27;6.80;;;4.55;;
7703;SDS011;3894;49.700;10.770;2022-09-13T18:20:56;10.83;;;5.43;;
7703;SDS011;3894;49.700;10.770;2022-09-13T18:23:25;8.88;;;5.50;;
7703;SDS011;3894;49.700;10.770;2022-09-13T18:26:05;8.27;;;5.32;;
7703;SDS011;3894;49.700;10.770;2022-09-13T18:28:33;7.85;;;4.95;;
7703;SDS011;3894;49.700;10.770;2022-09-13T18:30:59;11.60;;;5.90;;
7703;SDS011;3894;49.700;10.770;2022-09-13T18:33:27;9.93;;;6.03;;
7703;SDS011;3894;49.700;10.770;2022-09-13T18:36:01;7.05;;;5.30;;
7703;SDS011;3894;49.700;10.770;2022-09-13T18:38:34;9.75;;;5.72;;